createdAt,value
2018-06-05T00:00:14.443Z,91.60
2018-06-05T00:02:43.242Z,91.70
2018-06-05T00:05:12.002Z,91.30
2018-06-05T00:07:40.755Z,91.20
2018-06-05T00:10:09.707Z,90.90
2018-06-05T00:12:38.455Z,91.10
2018-06-05T00:15:07.199Z,91.30
2018-06-05T00:17:36.015Z,91.00
2018-06-05T00:20:04.841Z,90.60
2018-06-05T00:22:33.687Z,91.10
2018-06-05T00:25:02.668Z,91.50
2018-06-05T00:27:32.056Z,91.30
2018-06-05T00:32:29.342Z,91.50
2018-06-05T00:34:58.167Z,91.80
2018-06-05T00:37:27.135Z,91.70
2018-06-05T00:40:01.054Z,91.90
2018-06-05T00:42:29.788Z,92.10
2018-06-05T00:44:58.533Z,92.10
2018-06-05T00:47:27.249Z,92.00
2018-06-05T00:49:55.976Z,92.00
2018-06-05T00:52:24.774Z,91.90
2018-06-05T00:54:53.531Z,91.80
2018-06-05T00:57:22.384Z,91.70
2018-06-05T00:59:51.225Z,91.60
2018-06-05T01:02:19.963Z,91.70
2018-06-05T01:04:48.675Z,91.50
2018-06-05T01:07:17.526Z,91.40
2018-06-05T01:09:46.248Z,91.50
2018-06-05T01:12:15.049Z,91.80
2018-06-05T01:14:43.782Z,91.70
2018-06-05T01:19:41.050Z,91.50
2018-06-05T01:22:09.904Z,91.40
2018-06-05T01:24:38.642Z,91.60
2018-06-05T01:27:11.541Z,91.70
2018-06-05T01:29:40.301Z,91.70
2018-06-05T01:32:09.284Z,91.80
2018-06-05T01:34:38.788Z,91.70
2018-06-05T01:37:07.619Z,91.80
2018-06-05T01:39:36.297Z,91.90
2018-06-05T01:42:05.378Z,91.70
2018-06-05T01:44:34.231Z,91.90
2018-06-05T01:47:03.058Z,92.00
2018-06-05T01:49:37.078Z,91.90
2018-06-05T01:52:05.956Z,92.00
2018-06-05T01:54:34.825Z,92.00
2018-06-05T01:57:03.544Z,92.20
2018-06-05T01:59:32.257Z,92.20
2018-06-05T02:02:01.074Z,92.40
2018-06-05T02:04:29.819Z,92.70
2018-06-05T02:06:58.615Z,92.90
2018-06-05T02:09:27.526Z,92.70
2018-06-05T02:11:56.337Z,92.60
2018-06-05T02:14:25.143Z,92.70
2018-06-05T02:16:54.013Z,92.80
2018-06-05T02:19:22.746Z,92.90
2018-06-05T02:21:51.611Z,92.70
2018-06-05T02:24:20.298Z,92.70
2018-06-05T02:26:49.190Z,92.50
2018-06-05T02:29:17.921Z,92.30
2018-06-05T02:31:46.763Z,92.50
2018-06-05T02:34:15.605Z,92.70
2018-06-05T02:36:44.352Z,92.90
2018-06-05T02:39:13.290Z,93.10
2018-06-05T02:41:42.070Z,93.20
2018-06-05T02:44:10.903Z,93.30
2018-06-05T02:46:39.720Z,93.40
2018-06-05T02:49:08.626Z,93.30
2018-06-05T02:51:37.497Z,93.20
2018-06-05T02:54:06.407Z,93.20
2018-06-05T02:56:35.275Z,93.30
2018-06-05T02:59:04.060Z,93.00
2018-06-05T03:01:32.912Z,93.10
2018-06-05T03:04:01.728Z,92.90
2018-06-05T03:08:59.142Z,92.90
2018-06-05T03:16:25.287Z,93.20
2018-06-05T03:18:54.179Z,93.50
2018-06-05T03:21:22.939Z,93.70
2018-06-05T03:23:51.733Z,93.70
2018-06-05T03:26:20.443Z,93.70
2018-06-05T03:28:49.191Z,93.60
2018-06-05T03:31:17.918Z,93.50
2018-06-05T03:33:46.652Z,93.50
2018-06-05T03:36:15.544Z,93.50
2018-06-05T03:38:44.419Z,93.40
2018-06-05T03:41:18.419Z,93.50
2018-06-05T03:43:47.925Z,93.70
2018-06-05T03:46:16.755Z,93.30
2018-06-05T03:48:45.527Z,93.00
2018-06-05T03:51:14.275Z,92.70
2018-06-05T03:53:43.072Z,92.60
2018-06-05T03:56:12.022Z,92.50
2018-06-05T03:58:40.980Z,92.50
2018-06-05T04:03:38.450Z,92.60
2018-06-05T04:06:07.215Z,92.90
2018-06-05T04:08:36.080Z,92.80
2018-06-05T04:11:04.872Z,92.60
2018-06-05T04:16:02.508Z,92.60
2018-06-05T04:18:31.273Z,92.40
2018-06-05T04:21:00.111Z,92.20
2018-06-05T04:23:28.925Z,92.40
2018-06-05T04:25:57.782Z,92.40
2018-06-05T04:28:26.555Z,92.50
2018-06-05T04:30:55.347Z,92.60
2018-06-05T04:33:24.191Z,92.70
2018-06-05T04:35:53.731Z,92.60
2018-06-05T04:38:22.522Z,92.30
2018-06-05T04:40:52.053Z,92.50
2018-06-05T04:43:20.823Z,92.30
2018-06-05T04:45:49.960Z,91.90
2018-06-05T04:48:18.678Z,91.90
2018-06-05T04:50:47.299Z,91.90
2018-06-05T04:53:15.997Z,91.70
2018-06-05T04:55:44.651Z,91.60
2018-06-05T04:58:13.323Z,91.60
2018-06-05T05:00:41.880Z,91.50
2018-06-05T05:03:10.486Z,91.30
2018-06-05T05:05:39.050Z,91.30
2018-06-05T05:08:07.655Z,91.20
2018-06-05T05:10:36.430Z,91.30
2018-06-05T05:13:05.126Z,91.40
2018-06-05T05:15:33.911Z,91.20
2018-06-05T05:18:02.616Z,91.40
2018-06-05T05:20:31.371Z,91.50
2018-06-05T05:23:00.038Z,92.10
2018-06-05T05:25:28.717Z,92.00
2018-06-05T05:30:26.390Z,92.20
2018-06-05T05:35:23.417Z,92.20
2018-06-05T05:37:52.047Z,92.30
2018-06-05T05:40:20.720Z,92.50
2018-06-05T05:42:49.346Z,92.10
2018-06-05T05:45:17.912Z,91.80
2018-06-05T05:47:46.883Z,91.50
2018-06-05T05:50:15.664Z,92.20
2018-06-05T05:52:44.250Z,92.40
2018-06-05T05:55:12.822Z,92.40
2018-06-05T05:57:41.465Z,92.70
2018-06-05T06:00:10.031Z,92.30
2018-06-05T06:02:38.569Z,92.50
2018-06-05T06:05:07.259Z,92.80
2018-06-05T06:07:35.802Z,92.90
2018-06-05T06:10:04.319Z,92.90
2018-06-05T06:12:32.882Z,92.80
2018-06-05T06:15:01.414Z,93.10
2018-06-05T06:17:30.190Z,93.10
2018-06-05T06:19:58.812Z,93.00
2018-06-05T06:22:27.379Z,92.80
2018-06-05T06:24:55.951Z,93.00
2018-06-05T06:27:24.399Z,93.00
2018-06-05T06:32:21.347Z,93.30
2018-06-05T06:34:49.852Z,93.50
2018-06-05T06:37:18.543Z,93.30
2018-06-05T06:39:47.110Z,93.20
2018-06-05T06:44:57.421Z,93.00
2018-06-05T06:47:25.972Z,92.90
2018-06-05T06:49:54.494Z,92.80
2018-06-05T06:52:23.174Z,92.80
2018-06-05T06:54:51.741Z,92.60
2018-06-05T06:57:20.333Z,92.60
2018-06-05T06:59:48.794Z,92.50
2018-06-05T07:02:17.395Z,92.50
2018-06-05T07:04:45.940Z,92.50
2018-06-05T07:09:42.662Z,92.10
2018-06-05T07:12:11.485Z,92.20
2018-06-05T07:14:40.044Z,91.90
2018-06-05T07:17:08.641Z,92.30
2018-06-05T07:19:37.149Z,92.10
2018-06-05T07:22:05.927Z,91.60
2018-06-05T07:24:34.478Z,90.80
2018-06-05T07:27:03.052Z,90.30
2018-06-05T07:29:31.772Z,89.60
2018-06-05T07:32:00.794Z,85.10
2018-06-05T07:34:29.482Z,83.20
2018-06-05T07:36:58.117Z,81.60
2018-06-05T07:39:26.599Z,79.90
2018-06-05T07:41:55.200Z,78.60
2018-06-05T07:44:24.018Z,77.50
2018-06-05T07:49:20.732Z,77.40
2018-06-05T07:51:49.383Z,76.70
2018-06-05T07:54:17.892Z,74.80
2018-06-05T07:56:46.470Z,75.30
2018-06-05T07:59:15.167Z,73.80
2018-06-05T08:01:43.677Z,74.60
2018-06-05T08:04:12.334Z,75.10
2018-06-05T08:06:40.989Z,75.50
2018-06-05T08:09:09.928Z,76.20
2018-06-05T08:11:38.596Z,75.60
2018-06-05T08:14:07.254Z,73.20
2018-06-05T08:19:04.131Z,72.10
2018-06-05T08:21:32.764Z,71.40
2018-06-05T08:24:01.430Z,70.40
2018-06-05T08:27:06.934Z,71.10
2018-06-05T08:29:35.477Z,70.70
2018-06-05T08:32:04.198Z,70.80
2018-06-05T08:34:32.870Z,70.50
2018-06-05T08:37:01.498Z,70.00
2018-06-05T08:39:30.267Z,69.30
2018-06-05T08:41:58.865Z,67.70
2018-06-05T08:44:27.491Z,67.40
2018-06-05T08:46:56.123Z,67.80
2018-06-05T08:49:24.831Z,68.20
2018-06-05T08:51:53.483Z,67.30
2018-06-05T08:54:22.118Z,67.30
2018-06-05T08:56:50.758Z,67.50
2018-06-05T08:59:19.455Z,66.00
2018-06-05T09:01:48.110Z,66.10
2018-06-05T09:04:16.695Z,65.40
2018-06-05T09:06:45.395Z,65.30
2018-06-05T09:09:13.928Z,65.10
2018-06-05T09:11:42.484Z,65.60
2018-06-05T09:14:11.211Z,66.90
2018-06-05T09:16:39.745Z,66.70
2018-06-05T09:19:08.421Z,65.50
2018-06-05T09:21:37.180Z,66.70
2018-06-05T09:24:05.933Z,66.40
2018-06-05T09:26:34.700Z,65.80
2018-06-05T09:29:03.592Z,65.90
2018-06-05T09:31:32.373Z,65.50
2018-06-05T09:34:01.179Z,65.10
2018-06-05T09:38:58.904Z,65.10
2018-06-05T09:41:27.764Z,64.00
2018-06-05T09:43:56.633Z,65.10
2018-06-05T09:51:27.938Z,62.90
2018-06-05T09:53:56.624Z,62.60
2018-06-05T09:56:25.479Z,63.00
2018-06-05T10:06:20.196Z,61.90
2018-06-05T10:08:50.178Z,62.10
2018-06-05T10:11:19.027Z,61.90
2018-06-05T10:13:47.918Z,60.90
2018-06-05T10:16:16.744Z,60.30
2018-06-05T10:18:45.529Z,60.90
2018-06-05T10:21:14.284Z,60.40
2018-06-05T10:23:43.192Z,61.50
2018-06-05T10:26:11.875Z,60.80
2018-06-05T10:28:40.788Z,61.60
2018-06-05T10:31:09.722Z,60.40
2018-06-05T10:33:38.514Z,61.30
2018-06-05T10:36:07.318Z,61.50
2018-06-05T10:41:04.851Z,61.30
2018-06-05T10:46:02.166Z,63.20
2018-06-05T10:48:31.448Z,62.30
2018-06-05T10:51:00.332Z,61.80
2018-06-05T10:53:29.218Z,61.10
2018-06-05T10:55:58.033Z,61.30
2018-06-05T10:58:26.739Z,60.40
2018-06-05T11:00:55.492Z,60.30
2018-06-05T11:03:24.288Z,59.00
2018-06-05T11:05:52.959Z,59.70
2018-06-05T11:08:21.603Z,60.60
2018-06-05T11:10:50.174Z,61.30
2018-06-05T11:13:18.749Z,59.10
2018-06-05T11:15:47.293Z,60.70
2018-06-05T11:18:16.295Z,61.50
2018-06-05T11:20:44.800Z,61.00
2018-06-05T11:23:13.286Z,59.80
2018-06-05T11:25:41.894Z,61.30
2018-06-05T11:28:10.649Z,60.40
2018-06-05T11:30:39.294Z,60.30
2018-06-05T11:33:07.824Z,59.10
2018-06-05T11:35:36.572Z,59.30
2018-06-05T11:38:05.284Z,59.50
2018-06-05T11:40:33.912Z,59.60
2018-06-05T11:43:02.523Z,61.40
2018-06-05T11:45:31.118Z,61.50
2018-06-05T11:47:59.756Z,62.50
2018-06-05T11:50:28.607Z,61.60
2018-06-05T11:52:57.545Z,61.90
2018-06-05T11:55:26.459Z,62.00
2018-06-05T11:57:55.198Z,61.70
2018-06-05T12:02:52.496Z,61.80
2018-06-05T12:05:21.285Z,61.70
2018-06-05T12:07:50.100Z,60.30
2018-06-05T12:10:18.803Z,61.80
2018-06-05T12:12:47.579Z,62.40
2018-06-05T12:15:16.461Z,61.70
2018-06-05T12:17:45.313Z,62.50
2018-06-05T12:20:14.201Z,62.30
2018-06-05T12:22:43.006Z,62.30
2018-06-05T12:25:11.865Z,63.40
2018-06-05T12:27:40.752Z,63.20
2018-06-05T12:30:09.577Z,63.70
2018-06-05T12:32:38.497Z,63.50
2018-06-05T12:35:07.236Z,63.80
2018-06-05T12:37:35.979Z,64.30
2018-06-05T12:40:04.778Z,63.10
2018-06-05T12:42:33.737Z,63.30
2018-06-05T12:45:02.545Z,62.30
2018-06-05T12:47:31.319Z,61.10
2018-06-05T12:50:00.111Z,60.90
2018-06-05T12:52:29.079Z,61.50
2018-06-05T12:54:57.918Z,60.00
2018-06-05T12:57:26.617Z,59.60
2018-06-05T12:59:55.444Z,58.80
2018-06-05T13:02:24.428Z,58.80
2018-06-05T13:04:53.194Z,58.10
2018-06-05T13:07:22.009Z,58.60
2018-06-05T13:09:50.865Z,56.70
2018-06-05T13:12:19.822Z,56.40
2018-06-05T13:14:48.664Z,56.80
2018-06-05T13:17:17.557Z,56.50
2018-06-05T13:22:14.789Z,57.90
2018-06-05T13:24:44.275Z,57.40
2018-06-05T13:27:13.151Z,57.90
2018-06-05T13:29:41.980Z,56.90
2018-06-05T13:32:10.824Z,58.00
2018-06-05T13:34:40.449Z,58.60
2018-06-05T13:37:09.425Z,58.50
2018-06-05T13:39:38.281Z,58.60
2018-06-05T13:42:07.096Z,58.50
2018-06-05T13:44:35.864Z,58.20
2018-06-05T13:47:04.783Z,57.20
2018-06-05T13:49:33.615Z,56.30
2018-06-05T13:52:02.442Z,56.20
2018-06-05T13:54:31.360Z,56.30
2018-06-05T13:57:00.146Z,56.30
2018-06-05T14:01:57.556Z,55.60
2018-06-05T14:04:26.448Z,56.00
2018-06-05T14:06:55.222Z,55.70
2018-06-05T14:09:24.010Z,55.70
2018-06-05T14:11:53.819Z,55.50
2018-06-05T14:14:22.639Z,55.20
2018-06-05T14:16:51.405Z,55.50
2018-06-05T14:19:20.174Z,55.50
2018-06-05T14:21:48.985Z,56.80
2018-06-05T14:24:17.823Z,57.40
2018-06-05T14:26:46.691Z,58.50
2018-06-05T14:29:15.582Z,58.70
2018-06-05T14:31:44.575Z,59.20
2018-06-05T14:34:13.438Z,60.40
2018-06-05T14:36:42.244Z,61.50
2018-06-05T14:39:12.095Z,61.20
2018-06-05T14:41:40.941Z,61.50
2018-06-05T14:44:09.791Z,60.80
2018-06-05T14:46:38.599Z,59.70
2018-06-05T14:49:07.403Z,59.50
2018-06-05T14:51:36.240Z,59.70
2018-06-05T14:54:05.164Z,59.50
2018-06-05T14:56:33.912Z,58.10
2018-06-05T14:59:02.804Z,57.70
2018-06-05T15:06:28.543Z,57.70
2018-06-05T15:08:57.319Z,57.20
2018-06-05T15:11:26.204Z,57.80
2018-06-05T15:13:54.916Z,57.20
2018-06-05T15:16:23.858Z,56.70
2018-06-05T15:18:52.577Z,58.00
2018-06-05T15:21:21.856Z,57.60
2018-06-05T15:23:50.715Z,60.60
2018-06-05T15:26:19.450Z,64.70
2018-06-05T15:28:48.146Z,65.50
2018-06-05T15:31:16.969Z,69.00
2018-06-05T15:36:14.214Z,74.30
2018-06-05T15:38:42.961Z,78.30
2018-06-05T15:41:11.762Z,81.30
2018-06-05T15:43:41.003Z,82.20
2018-06-05T15:46:09.967Z,84.00
2018-06-05T15:48:38.830Z,84.10
2018-06-05T15:53:36.936Z,85.00
2018-06-05T15:56:05.690Z,89.10
2018-06-05T15:58:34.621Z,88.50
2018-06-05T16:01:03.414Z,90.50
2018-06-05T16:03:31.938Z,91.10
2018-06-05T16:06:00.501Z,90.80
2018-06-05T16:08:29.058Z,91.00
2018-06-05T16:10:57.556Z,91.00
2018-06-05T16:13:26.096Z,90.50
2018-06-05T16:15:54.711Z,90.60
2018-06-05T16:18:23.563Z,82.60
2018-06-05T16:20:52.201Z,74.90
2018-06-05T16:23:20.780Z,71.00
2018-06-05T16:25:49.530Z,70.50
2018-06-05T16:28:19.003Z,71.00
2018-06-05T16:30:47.718Z,70.70
2018-06-05T16:33:16.351Z,70.50
2018-06-05T16:35:44.913Z,70.50
2018-06-05T16:38:13.496Z,70.70
2018-06-05T16:40:42.074Z,69.40
2018-06-05T16:43:10.729Z,68.10
2018-06-05T16:45:39.246Z,68.00
2018-06-05T16:48:07.779Z,66.50
2018-06-05T16:50:36.503Z,67.00
2018-06-05T16:53:05.112Z,67.80
2018-06-05T16:55:33.667Z,71.70
2018-06-05T16:58:02.118Z,78.00
2018-06-05T17:00:30.682Z,82.20
2018-06-05T17:02:59.259Z,85.30
2018-06-05T17:05:27.904Z,86.70
2018-06-05T17:07:56.495Z,88.70
2018-06-05T17:10:25.055Z,89.40
2018-06-05T17:12:54.345Z,84.80
2018-06-05T17:15:23.103Z,90.90
2018-06-05T17:17:51.661Z,91.50
2018-06-05T17:20:20.298Z,91.90
2018-06-05T17:22:48.921Z,92.80
2018-06-05T17:25:17.583Z,90.70
2018-06-05T17:27:46.251Z,91.80
2018-06-05T17:30:14.863Z,91.40
2018-06-05T17:32:43.508Z,92.20
2018-06-05T17:35:12.180Z,92.50
2018-06-05T17:37:40.807Z,94.50
2018-06-05T17:40:09.419Z,93.30
2018-06-05T17:42:38.187Z,93.70
2018-06-05T17:45:06.952Z,94.40
2018-06-05T17:50:03.747Z,95.30
2018-06-05T17:52:32.619Z,95.20
2018-06-05T17:55:01.130Z,95.70
2018-06-05T17:57:29.665Z,94.90
2018-06-05T17:59:58.222Z,95.30
2018-06-05T18:02:26.739Z,95.20
2018-06-05T18:04:55.279Z,94.70
2018-06-05T18:07:23.905Z,95.50
2018-06-05T18:09:52.732Z,94.70
2018-06-05T18:12:21.319Z,95.50
2018-06-05T18:14:49.908Z,95.70
2018-06-05T18:17:18.522Z,96.10
2018-06-05T18:19:47.068Z,96.00
2018-06-05T18:22:15.673Z,96.40
2018-06-05T18:24:44.253Z,97.20
2018-06-05T18:27:12.773Z,96.60
2018-06-05T18:29:41.257Z,96.10
2018-06-05T18:32:10.166Z,96.20
2018-06-05T18:34:38.724Z,95.30
2018-06-05T18:37:07.345Z,95.30
2018-06-05T18:39:35.879Z,95.90
2018-06-05T18:42:04.588Z,96.50
2018-06-05T18:44:33.178Z,96.80
2018-06-05T18:47:01.647Z,97.20
2018-06-05T18:49:30.121Z,97.20
2018-06-05T18:52:03.712Z,97.50
2018-06-05T18:54:32.324Z,96.40
2018-06-05T18:57:00.917Z,96.20
2018-06-05T18:59:29.437Z,96.00
2018-06-05T19:01:57.978Z,96.00
2018-06-05T19:04:26.627Z,95.70
2018-06-05T19:06:55.147Z,96.20
2018-06-05T19:09:23.995Z,96.70
2018-06-05T19:11:52.508Z,96.80
2018-06-05T19:14:21.036Z,96.80
2018-06-05T19:16:49.546Z,97.00
2018-06-05T19:19:18.039Z,97.50
2018-06-05T19:21:46.634Z,97.10
2018-06-05T19:24:15.355Z,97.70
2018-06-05T19:26:43.895Z,97.80
2018-06-05T19:29:12.505Z,97.40
2018-06-05T19:31:41.094Z,97.70
2018-06-05T19:34:09.731Z,97.90
2018-06-05T19:36:38.559Z,97.30
2018-06-05T19:39:08.452Z,97.50
2018-06-05T19:41:37.083Z,97.40
2018-06-05T19:44:05.748Z,97.20
2018-06-05T19:46:34.452Z,97.70
2018-06-05T19:49:03.103Z,97.20
2018-06-05T19:51:31.710Z,97.30
2018-06-05T19:54:00.317Z,96.50
2018-06-05T19:56:29.064Z,96.40
2018-06-05T19:58:57.724Z,97.00
2018-06-05T20:01:26.270Z,96.70
2018-06-05T20:03:54.872Z,96.80
2018-06-05T20:06:23.561Z,97.00
2018-06-05T20:08:52.175Z,96.70
2018-06-05T20:11:20.725Z,96.50
2018-06-05T20:13:49.373Z,96.70
2018-06-05T20:16:18.031Z,96.40
2018-06-05T20:18:46.642Z,96.40
2018-06-05T20:21:15.295Z,96.50
2018-06-05T20:23:44.025Z,96.60
2018-06-05T20:26:13.576Z,96.90
2018-06-05T20:28:42.615Z,96.80
2018-06-05T20:31:12.347Z,96.70
2018-06-05T20:36:09.808Z,96.60
2018-06-05T20:38:38.638Z,96.30
2018-06-05T20:41:07.537Z,96.50
2018-06-05T20:43:36.294Z,95.90
2018-06-05T20:46:05.743Z,95.90
2018-06-05T20:48:34.543Z,95.40
2018-06-05T20:53:31.974Z,95.70
2018-06-05T20:56:00.744Z,95.50
2018-06-05T20:58:29.515Z,95.50
2018-06-05T21:00:58.450Z,94.90
2018-06-05T21:03:27.447Z,94.60
2018-06-05T21:05:56.364Z,94.60
2018-06-05T21:11:14.488Z,94.30
2018-06-05T21:13:43.535Z,94.50
2018-06-05T21:16:13.577Z,94.50
2018-06-05T21:18:43.996Z,94.20
2018-06-05T21:21:12.944Z,94.10
2018-06-05T21:23:41.806Z,93.70
2018-06-05T21:26:10.774Z,93.70
2018-06-05T21:28:39.600Z,93.90
2018-06-05T21:31:08.606Z,94.10
2018-06-05T21:36:07.664Z,93.90
2018-06-05T21:38:36.523Z,94.00
2018-06-05T21:41:05.349Z,93.90
2018-06-05T21:43:34.168Z,94.20
2018-06-05T21:46:03.068Z,94.10
2018-06-05T21:51:00.321Z,93.20
2018-06-05T21:53:28.994Z,93.50
2018-06-05T21:55:57.731Z,93.00
2018-06-05T21:58:26.681Z,93.10
2018-06-05T22:00:55.586Z,93.00
2018-06-05T22:03:24.522Z,92.80
2018-06-05T22:05:53.271Z,92.20
2018-06-05T22:08:22.002Z,92.30
2018-06-05T22:10:50.832Z,92.10
2018-06-05T22:13:19.686Z,92.10
2018-06-05T22:15:48.564Z,91.80
2018-06-05T22:20:46.070Z,90.70
2018-06-05T22:23:14.922Z,90.70
2018-06-05T22:25:43.651Z,90.50
2018-06-05T22:28:12.586Z,90.30
2018-06-05T22:30:41.468Z,88.20
2018-06-05T22:33:10.290Z,85.00
2018-06-05T22:35:39.226Z,79.00
2018-06-05T22:38:07.920Z,73.70
2018-06-05T22:40:36.571Z,68.30
2018-06-05T22:43:05.350Z,64.10
2018-06-05T22:48:02.471Z,60.80
2018-06-05T22:50:31.203Z,59.90
2018-06-05T22:52:59.919Z,59.20
2018-06-05T22:55:28.746Z,58.50
2018-06-05T22:57:57.534Z,58.60
2018-06-05T23:00:32.614Z,57.00
2018-06-05T23:03:01.590Z,56.80
2018-06-05T23:05:30.554Z,56.60
2018-06-05T23:07:59.854Z,56.30
2018-06-05T23:10:28.727Z,56.10
2018-06-05T23:12:57.500Z,56.40
2018-06-05T23:15:26.318Z,56.80
2018-06-05T23:17:55.132Z,55.80
2018-06-05T23:20:24.318Z,55.80
2018-06-05T23:22:53.276Z,55.20
2018-06-05T23:27:51.717Z,55.10
2018-06-05T23:30:20.530Z,55.60
2018-06-05T23:35:17.886Z,56.50
2018-06-05T23:37:46.696Z,56.80
2018-06-05T23:40:15.648Z,57.30
2018-06-05T23:42:44.495Z,57.40
2018-06-05T23:45:13.390Z,58.10
2018-06-05T23:50:10.489Z,56.60
2018-06-05T23:55:07.792Z,56.70
2018-06-05T23:57:36.667Z,56.10
